Flight Track Log - Related Links

Times and Time Zones

All times are in EDT time to prevent confusion due to time zone crossing. See the AWE1525 flight status page for this flight to view local times or setup timezone preferences in your user account.

Time Position Orientation Groundspeed Altitude Reporting Facility
EDT Latitude Longitude Course Direction KTS MPH feet Rate Location/Type
Mon 07:07:50 PM 43.1089 -76.0892 204° Southwest 147 169 1,200  Level Boston Center
Mon 07:08:57 PM 43.0817 -76.0336 124° Southeast 204 235 2,900 1,688 Climbing Boston Center
Mon 07:09:58 PM 43.0153 -76.0156 169° South 279 321 4,800 2,380 Climbing Boston Center
Mon 07:10:58 PM 42.9753 -76.0928 235° Southwest 259 298 7,700 2,529 Climbing Boston Center
Mon 07:11:59 PM 42.9453 -76.1847 246° West 268 308 9,900 1,766 Climbing Boston Center
Mon 07:13:00 PM 42.5492 -76.6638 204° Southwest  Level FlightAware Approximate
Mon 07:14:15 PM 42.7725 -76.3083 208° Southwest 311 358 13,500  Level New York Center
Mon 07:15:15 PM 42.6714 -76.3336 190° South 336 387 16,000 2,115 Climbing New York Center
Mon 07:16:17 PM 42.5683 -76.3586 190° South 365 420 17,800 1,967 Climbing New York Center
Mon 07:17:17 PM 42.4589 -76.3858 190° South 385 443 20,000 2,034 Climbing New York Center
Mon 07:18:15 PM 42.3492 -76.4158 191° South 398 458 21,800 1,633 Climbing New York Center
Mon 07:20:17 PM 42.1289 -76.4947 195° South 414 476 24,900 1,508 Climbing New York Center
Mon 07:21:18 PM 42.0347 -76.5928 218° Southwest 423 487 26,400 1,373 Climbing New York Center
Mon 07:22:15 PM 41.9478 -76.7078 225° Southwest 423 487 27,600 1,322 Climbing New York Center
Mon 07:23:16 PM 41.8589 -76.8194 223° Southwest 435 501 29,000 1,279 Climbing New York Center
Mon 07:24:17 PM 41.7656 -76.9361 223° Southwest 448 516 30,200 1,059 Climbing New York Center
Mon 07:25:15 PM 41.6742 -77.0500 223° Southwest 455 524 31,100 1,109 Climbing New York Center
Mon 07:26:16 PM 41.5800 -77.1717 224° Southwest 468 539 32,400 1,140 Climbing New York Center
Mon 07:27:16 PM 41.4950 -77.2797 224° Southwest 468 539 33,400 1,091 Climbing New York Center
Mon 07:28:17 PM 41.3900 -77.4081 223° Southwest 468 539 34,600 1,091 Climbing New York Center
Mon 07:29:17 PM 41.2936 -77.5283 223° Southwest 468 539 35,600 971 Climbing New York Center
Mon 07:31:47 PM 41.0592 -77.8128 222° Southwest 477 549 38,000 686 Climbing Cleveland Center
Mon 07:32:47 PM 40.9661 -77.9267 223° Southwest 471 542 38,000  Level Cleveland Center
Mon 07:33:47 PM 40.8792 -78.0456 226° Southwest 463 533 38,000  Level Cleveland Center
Mon 07:34:47 PM 40.7964 -78.1750 230° Southwest 457 526 38,000  Level Cleveland Center
Mon 07:35:47 PM 40.7136 -78.3039 230° Southwest 457 526 38,000  Level Cleveland Center
Mon 07:36:47 PM 40.6328 -78.4325 230° Southwest 462 532 38,000  Level Cleveland Center
Mon 07:37:47 PM 40.5494 -78.5583 229° Southwest 462 532 38,000  Level Cleveland Center
Mon 07:38:47 PM 40.4703 -78.6861 231° Southwest 462 532 38,000  Level Cleveland Center
Mon 07:39:47 PM 40.3847 -78.8114 228° Southwest 462 532 38,000 50 Level Cleveland Center
Mon 07:40:47 PM 40.3033 -78.9386 230° Southwest 462 532 38,100  Climbing Cleveland Center
Mon 07:41:47 PM 40.2197 -79.0631 229° Southwest 462 532 38,000 -50 Descending Cleveland Center
Mon 07:42:47 PM 40.1358 -79.1900 229° Southwest 462 532 38,000  Level Cleveland Center
Mon 07:43:47 PM 40.0539 -79.3136 229° Southwest 462 532 38,000  Level Cleveland Center
Mon 07:44:47 PM 39.9758 -79.4317 229° Southwest 456 525 38,000  Level Cleveland Center
Mon 07:45:47 PM 39.8936 -79.5550 229° Southwest 456 525 38,000  Level Cleveland Center
Mon 07:46:47 PM 39.8133 -79.6750 229° Southwest 451 519 38,000  Level Cleveland Center
Mon 07:47:47 PM 39.7331 -79.7950 229° Southwest 451 519 38,000  Level Cleveland Center
Mon 07:48:47 PM 39.6525 -79.9144 229° Southwest 446 513 38,000  Level Cleveland Center
Mon 07:50:55 PM 39.4783 -80.1647 228° Southwest 445 512 38,000  Level Indianapolis Center
Mon 07:51:57 PM 39.3928 -80.2825 227° Southwest 449 517 38,000  Level Indianapolis Center
Mon 07:52:58 PM 39.2928 -80.4244 228° Southwest 444 511 38,000  Level Indianapolis Center
Mon 07:53:59 PM 39.2092 -80.5419 227° Southwest 445 512 38,000 -390 Level Indianapolis Center
Mon 07:55:01 PM 39.1158 -80.6439 220° Southwest 445 512 37,200 -484 Descending Indianapolis Center
Mon 07:56:03 PM 38.9994 -80.7103 204° Southwest 451 519 37,000 -98 Descending Indianapolis Center
Mon 07:57:04 PM 38.8844 -80.7758 204° Southwest 452 520 37,000  Level Indianapolis Center
Mon 07:58:06 PM 38.7683 -80.8428 204° Southwest 454 522 37,000  Level Indianapolis Center
Mon 07:59:07 PM 38.6533 -80.9089 204° Southwest 450 518 37,000  Level Indianapolis Center
Mon 08:00:09 PM 38.5389 -80.9736 204° Southwest 448 516 37,000 -390 Level Indianapolis Center
Mon 08:01:10 PM 38.4247 -81.0375 204° Southwest 444 511 36,200 -488 Descending Indianapolis Center
Mon 08:02:12 PM 38.3100 -81.1028 204° Southwest 447 514 36,000 -98 Descending Indianapolis Center
Mon 08:03:13 PM 38.1942 -81.1678 204° Southwest 451 519 36,000  Level Indianapolis Center
Mon 08:04:15 PM 38.0558 -81.2447 204° Southwest 449 517 36,000 -98 Level Indianapolis Center
Mon 08:05:16 PM 37.9408 -81.3097 204° Southwest 449 517 35,800 -585 Descending Indianapolis Center
Mon 08:06:18 PM 37.8286 -81.3719 204° Southwest 441 507 34,800 -976 Descending Indianapolis Center
Mon 08:07:19 PM 37.7128 -81.4361 204° Southwest 440 506 33,800 -927 Descending Indianapolis Center
Mon 08:08:21 PM 37.6056 -81.4978 204° Southwest 437 503 32,900 -878 Descending Indianapolis Center
Mon 08:09:22 PM 37.4897 -81.5578 202° Southwest 448 516 32,000 -634 Descending Indianapolis Center
Mon 08:10:24 PM 37.3764 -81.6208 204° Southwest 444 511 31,600 -780 Descending Indianapolis Center
Mon 08:11:25 PM 37.2389 -81.6972 204° Southwest 460 529 30,400 -1,024 Descending Indianapolis Center
Mon 08:12:27 PM 37.1192 -81.7614 203° Southwest 464 534 29,500 -976 Descending Indianapolis Center
Mon 08:13:28 PM 37.0011 -81.8253 203° Southwest 460 529 28,400 -732 Descending Indianapolis Center
Mon 08:14:30 PM 36.8833 -81.8889 203° Southwest 459 528 28,000 -339 Descending Indianapolis Center
Mon 08:15:32 PM 36.7656 -81.9519 203° Southwest 458 527 27,700 -634 Descending Indianapolis Center
Mon 08:16:33 PM 36.6544 -82.0128 204° Southwest 440 506 26,700 -976 Descending Indianapolis Center
Mon 08:17:35 PM 36.5414 -82.0728 203° Southwest 438 504 25,700 -976 Descending Indianapolis Center
Mon 08:18:36 PM 36.4264 -82.1119 195° South 439 505 24,700 -829 Descending Indianapolis Center
Mon 08:19:38 PM 36.2989 -82.0386 155° Southeast 434 499 24,000 -1,317 Descending Indianapolis Center
Mon 08:20:39 PM 36.1933 -81.9694 152° Southeast 430 495 22,000 -1,897 Descending Indianapolis Center
Mon 08:21:54 PM 36.0686 -81.8886 152° Southeast 415 478 19,700 -1,511 Descending Atlanta Center
Mon 08:22:54 PM 35.9800 -81.8294 152° Southeast 388 447 18,600 -1,450 Descending Atlanta Center
Mon 08:23:54 PM 35.9017 -81.7622 145° Southeast 353 406 16,800 -1,846 Descending Atlanta Center
Mon 08:24:51 PM 35.8294 -81.7003 145° Southeast 323 372 15,000 -1,800 Descending Atlanta Center
Mon 08:25:54 PM 35.7492 -81.6439 150° Southeast 328 377 13,200 -1,561 Descending Atlanta Center
Mon 08:26:54 PM 35.6731 -81.5897 150° Southeast 315 362 11,800 -1,350 Descending Atlanta Center
Mon 08:27:54 PM 35.6008 -81.5358 149° Southeast 315 362 10,500 -1,000 Descending Atlanta Center
Mon 08:28:54 PM 35.5389 -81.4661 138° Southeast 307 353 9,800 -1,050 Descending Atlanta Center
Mon 08:29:54 PM 35.5411 -81.3667 88° East 264 304 8,400 -1,400 Descending Atlanta Center
Mon 08:30:54 PM 35.5453 -81.2694 87° East 271 312 7,000 -1,350 Descending Atlanta Center
Mon 08:31:54 PM 35.5203 -81.1808 109° East 277 319 5,700 -1,300 Descending Atlanta Center
Mon 08:32:54 PM 35.4847 -81.0981 118° Southeast 277 319 4,400 -850 Descending Atlanta Center
Mon 08:33:54 PM 35.4397 -81.0436 135° Southeast 250 288 4,000 -661 Descending Atlanta Center
Mon 08:35:01 PM 35.3861 -80.9869 139° Southeast 213 245 3,000 -600 Descending Atlanta Center
Mon 08:36:14 PM 35.3256 -80.9789 174° South 173 199 2,600 -329 Descending Atlanta Center

Login

Don't have an account? Register now (free) for customized features, flight alerts, and more!